首页
METAR-TAF:

METAR-TAF

机场 :

贵阳市, 中华人民共和国

贵阳龙洞堡国际机场

纬度: 26-32-19N, 经度: 106-48-03E, 海拔: 1139米

当前天气观测

该预报发布于48分钟前的05:00 UTC
风速4节,风向东北,在北转西北东南之间变化
温度 13°C
湿度 58%
气压 1024 hPa
能见度10公里或以上
散云层高于2300英尺
多云层高于4600英尺

METAR: ZUGY 250500Z 04002MPS 330V140 9999 SCT023 BKN046 13/05 Q1024 NOSIG

时间: 13:48 (05:48 UTC)

预报

该预报发布于2小时和46分钟前的03:02 UTC
预报有效从25日的 06点(UTC)到 26日的 06点(UTC)
风速10节,风向北转东北
能見度: 6000
多云层高于1500英尺
阴天层高于3300英尺
成为
从 25日的 13点(UTC)到 25日的 15点(UTC)
风速8节,风向

TAF: ZUGY 250302Z 2506/2606 02005MPS 6000 BKN015 OVC033 TX15/2507Z TN06/2522Z BECMG 2513/2515 18004MPS

超过4000个机场的气象观测和天气预报(METAR&TAF报告)。

可查询的气象台以黄色和红色小点在地图上表示。

将鼠标移到小点上方,可查看气象台名称。

然后点击查看天气观测和预报。

如需切换地图:点击带黑十字的绿色按钮放大地图;点击带横线的绿色按钮缩小地图;或者点击绿色箭头查看邻近地区的地图。


METAR-TAF: